Terminal Aerodrome Forecast
Issued by NWS Grand Junction, CO

Home | Current Version | Previous Version | Text Only | Print | Product List | Glossary On
Versions: 1 2 3 4 5 6 7 8 9 10 11 12 13 14 15 16
000
FTUS45 KGJT 210539
TAFGJT
TAF
KGJT 210539Z 2106/2206 VRB05KT P6SM BKN150
     FM210900 13004KT P6SM SCT050 BKN150
     FM211800 28004KT P6SM VCTS BKN120CB
     FM212300 33006KT P6SM BKN120
     FM220100 13006KT P6SM BKN120
     FM220200 06005KT P6SM OVC110=

USA.gov is the U.S. government's official web portal to all federal, state and local government web resources and services.